Terminal Aerodrome Forecast
Issued by NWS Key West, FL

Home | Current Version | Previous Version | Text Only | Print | Product List | Glossary On
Versions: 1 2 3 4 5 6 7 8 9 10 11 12 13 14 15 16 17 18 19 20 21 22 23
000
FTUS42 KKEY 171400 AAA
TAFEYW
TAF AMD
KEYW 171435Z 1715/1812 09009KT P6SM VCSH FEW015 SCT025
     FM172100 08012KT P6SM FEW015 SCT025
     FM180300 08013G18KT P6SM VCSH SCT025 BKN050
     FM180900 12014KT P6SM BKN250=

USA.gov is the U.S. government's official web portal to all federal, state and local government web resources and services.